Time;durP1;ratioP1;P1;durP2;ratioP2;P2;SDS_P1;SDS_P2;PMS_P1;PMS_P2;Temp;Humidity;BMP_temperature;BMP_pressure;BME280_temperature;BME280_humidity;BME280_pressure;Samples;Min_cycle;Max_cycle;Signal;HPM_P1;HPM_P2
2023/07/22 00:00:14;;;;;;;;;;;17.00;67.90;;;;;;5112863;28;19908;-25
2023/07/22 00:02:40;;;;;;;;;;;17.00;68.00;;;;;;5112687;28;19912;-26
2023/07/22 00:05:06;;;;;;;;;;;17.00;68.00;;;;;;5112269;28;19923;-25
2023/07/22 00:07:31;;;;;;;;;;;17.00;67.90;;;;;;5094324;28;19907;-27
2023/07/22 00:09:57;;;;;;;;;;;17.00;68.00;;;;;;5112657;28;19987;-26
2023/07/22 00:12:25;;;;;;;;;;;17.00;68.00;;;;;;5094137;28;19908;-30
2023/07/22 00:14:51;;;;;;;;;;;17.00;68.00;;;;;;5112358;28;19927;-28
2023/07/22 00:17:16;;;;;;;;;;;16.90;68.00;;;;;;5112559;28;19944;-28
2023/07/22 00:19:42;;;;;;;;;;;16.90;68.00;;;;;;5113863;28;19912;-54
2023/07/22 00:22:07;;;;;;;;;;;16.90;68.20;;;;;;5097472;28;20356;-28
2023/07/22 00:24:33;;;;;;;;;;;16.90;68.30;;;;;;5115521;28;20359;-53
2023/07/22 00:26:59;;;;;;;;;;;16.80;68.30;;;;;;5115447;28;19912;-37
2023/07/22 00:29:24;;;;;;;;;;;16.80;68.40;;;;;;5115513;28;20308;-30
2023/07/22 00:31:50;;;;;;;;;;;16.80;68.40;;;;;;5116368;28;19915;-53
2023/07/22 00:34:15;;;;;;;;;;;16.80;68.50;;;;;;5116296;28;19914;-29
2023/07/22 00:36:40;;;;;;;;;;;16.80;68.50;;;;;;5116154;28;20325;-35
2023/07/22 00:39:06;;;;;;;;;;;16.80;68.50;;;;;;5116458;28;19908;-27
2023/07/22 00:41:31;;;;;;;;;;;16.80;68.60;;;;;;5116416;28;19907;-26
2023/07/22 00:43:57;;;;;;;;;;;16.80;68.70;;;;;;5116021;28;19911;-26
2023/07/22 00:46:22;;;;;;;;;;;16.70;68.70;;;;;;5098015;28;19907;-45
2023/07/22 00:48:49;;;;;;;;;;;16.70;68.80;;;;;;5115959;28;20114;-27
2023/07/22 00:51:14;;;;;;;;;;;16.70;68.80;;;;;;5116244;28;20023;-26
2023/07/22 00:53:40;;;;;;;;;;;16.60;68.90;;;;;;5097660;28;19922;-29
2023/07/22 00:56:05;;;;;;;;;;;16.60;69.00;;;;;;5116216;28;19908;-32
2023/07/22 00:58:31;;;;;;;;;;;16.60;69.00;;;;;;5115718;28;19908;-28
2023/07/22 01:00:56;;;;;;;;;;;16.60;69.20;;;;;;5115812;28;19963;-25
2023/07/22 01:03:22;;;;;;;;;;;16.50;69.20;;;;;;5115652;28;20027;-26
2023/07/22 01:05:48;;;;;;;;;;;16.50;69.20;;;;;;5112537;28;20283;-26
2023/07/22 01:08:13;;;;;;;;;;;16.50;69.30;;;;;;5116039;28;19995;-26
2023/07/22 01:10:39;;;;;;;;;;;16.50;69.30;;;;;;5115636;28;19973;-26
2023/07/22 01:13:05;;;;;;;;;;;16.50;69.30;;;;;;5115622;28;20359;-26
2023/07/22 01:15:31;;;;;;;;;;;16.60;69.30;;;;;;5097205;28;20374;-25
2023/07/22 01:18:01;;;;;;;;;;;16.60;69.20;;;;;;5097161;28;19915;-26
2023/07/22 01:20:28;;;;;;;;;;;16.60;69.20;;;;;;5115660;28;20127;-26
2023/07/22 01:22:54;;;;;;;;;;;16.60;69.20;;;;;;5115364;28;19916;-29
2023/07/22 01:25:21;;;;;;;;;;;16.70;69.20;;;;;;5115819;28;19939;-29
2023/07/22 01:27:47;;;;;;;;;;;16.70;69.20;;;;;;5115662;28;20014;-27
2023/07/22 01:30:14;;;;;;;;;;;16.70;69.30;;;;;;5114133;28;19947;-26
2023/07/22 01:32:39;;;;;;;;;;;16.70;69.30;;;;;;5114881;28;20428;-26
2023/07/22 01:35:05;;;;;;;;;;;16.70;69.30;;;;;;5115117;28;19911;-30
2023/07/22 01:37:31;;;;;;;;;;;16.70;69.40;;;;;;5115100;28;19951;-26
2023/07/22 01:39:57;;;;;;;;;;;16.70;69.40;;;;;;5115361;28;19999;-28
2023/07/22 01:42:23;;;;;;;;;;;16.70;69.40;;;;;;5115149;28;20332;-25
2023/07/22 01:44:48;;;;;;;;;;;16.70;69.40;;;;;;5096565;28;20359;-24
2023/07/22 01:47:14;;;;;;;;;;;16.70;69.40;;;;;;5114727;28;20023;-26
2023/07/22 01:49:39;;;;;;;;;;;16.70;69.40;;;;;;5114833;28;19908;-28
2023/07/22 01:52:05;;;;;;;;;;;16.70;69.40;;;;;;5096857;28;20021;-29
2023/07/22 01:54:30;;;;;;;;;;;16.70;69.40;;;;;;5114995;28;19915;-26
2023/07/22 01:56:56;;;;;;;;;;;16.80;69.40;;;;;;5096411;28;19908;-28
2023/07/22 01:59:21;;;;;;;;;;;16.80;69.50;;;;;;5114745;28;19914;-28
2023/07/22 02:01:47;;;;;;;;;;;16.80;69.60;;;;;;5114752;28;19912;-26
2023/07/22 02:04:13;;;;;;;;;;;16.70;69.60;;;;;;5114565;28;20324;-27
2023/07/22 02:06:38;;;;;;;;;;;16.70;69.60;;;;;;5114526;28;19908;-25
2023/07/22 02:09:08;;;;;;;;;;;16.70;69.60;;;;;;5114534;28;19907;-25
2023/07/22 02:11:35;;;;;;;;;;;16.70;69.70;;;;;;5114587;28;19908;-24
2023/07/22 02:14:00;;;;;;;;;;;16.70;69.70;;;;;;5114384;28;19908;-25
2023/07/22 02:16:26;;;;;;;;;;;16.70;69.80;;;;;;5096145;28;19907;-31
2023/07/22 02:18:51;;;;;;;;;;;16.70;69.80;;;;;;5114630;28;20379;-36
2023/07/22 02:21:16;;;;;;;;;;;16.70;69.80;;;;;;5114309;28;20006;-25
2023/07/22 02:23:42;;;;;;;;;;;16.70;69.90;;;;;;5114174;28;19919;-25
2023/07/22 02:26:08;;;;;;;;;;;16.70;70.00;;;;;;5114237;28;20432;-26
2023/07/22 02:28:33;;;;;;;;;;;16.70;70.10;;;;;;5114104;28;19908;-26
2023/07/22 02:31:02;;;;;;;;;;;16.60;70.10;;;;;;5114142;28;19911;-26
2023/07/22 02:33:27;;;;;;;;;;;16.60;70.20;;;;;;5114400;28;20356;-31
2023/07/22 02:35:53;;;;;;;;;;;16.50;70.30;;;;;;5114002;28;19987;-27
2023/07/22 02:38:18;;;;;;;;;;;16.50;70.40;;;;;;5113899;28;20356;-27
2023/07/22 02:40:44;;;;;;;;;;;16.50;70.50;;;;;;5114228;28;19953;-25
2023/07/22 02:43:09;;;;;;;;;;;16.50;70.60;;;;;;5113920;28;19958;-26
2023/07/22 02:45:36;;;;;;;;;;;16.40;70.60;;;;;;5113743;28;19908;-25
2023/07/22 02:48:01;;;;;;;;;;;16.40;70.70;;;;;;5113649;28;19923;-26
2023/07/22 02:50:26;;;;;;;;;;;16.40;70.70;;;;;;5113760;28;19908;-25
2023/07/22 02:52:52;;;;;;;;;;;16.40;70.80;;;;;;5113660;28;19915;-27
2023/07/22 02:55:20;;;;;;;;;;;16.40;70.90;;;;;;5113611;28;19915;-29
2023/07/22 02:57:46;;;;;;;;;;;16.30;70.90;;;;;;5113620;28;19915;-29
2023/07/22 03:00:13;;;;;;;;;;;16.40;71.00;;;;;;5113601;28;19908;-29
2023/07/22 03:02:41;;;;;;;;;;;16.30;71.00;;;;;;5113324;28;20010;-26
2023/07/22 03:05:08;;;;;;;;;;;16.30;71.00;;;;;;5113907;28;19998;-27
2023/07/22 03:07:34;;;;;;;;;;;16.30;71.10;;;;;;5113388;28;19908;-25
2023/07/22 03:09:59;;;;;;;;;;;16.30;71.20;;;;;;5113635;28;19944;-28
2023/07/22 03:12:25;;;;;;;;;;;16.20;71.20;;;;;;5113681;28;20282;-26
2023/07/22 03:14:50;;;;;;;;;;;16.20;71.30;;;;;;5113505;28;20362;-27
2023/07/22 03:17:17;;;;;;;;;;;16.30;71.40;;;;;;5113280;28;19914;-27
2023/07/22 03:19:43;;;;;;;;;;;16.20;71.30;;;;;;5113178;28;19908;-26
2023/07/22 03:22:09;;;;;;;;;;;16.20;71.40;;;;;;5094915;28;19915;-26
2023/07/22 03:24:35;;;;;;;;;;;16.20;71.40;;;;;;5112925;28;19958;-25
2023/07/22 03:27:00;;;;;;;;;;;16.20;71.50;;;;;;5113033;28;19948;-29
2023/07/22 03:29:27;;;;;;;;;;;16.20;71.50;;;;;;5113101;28;19915;-26
2023/07/22 03:31:53;;;;;;;;;;;16.10;71.50;;;;;;5112926;28;19915;-26
2023/07/22 03:34:18;;;;;;;;;;;16.10;71.50;;;;;;5112862;28;19927;-29
2023/07/22 03:36:44;;;;;;;;;;;16.10;71.60;;;;;;5112925;28;20302;-27
2023/07/22 03:39:09;;;;;;;;;;;16.10;71.60;;;;;;5112823;28;19961;-26
2023/07/22 03:41:35;;;;;;;;;;;16.10;71.70;;;;;;5112843;28;19938;-26
2023/07/22 03:44:00;;;;;;;;;;;16.10;71.60;;;;;;5112889;28;20294;-28
2023/07/22 03:46:25;;;;;;;;;;;16.10;71.70;;;;;;5112976;28;19915;-28
2023/07/22 03:48:51;;;;;;;;;;;16.10;71.80;;;;;;5112610;28;19964;-30
2023/07/22 03:51:17;;;;;;;;;;;16.10;71.80;;;;;;5112813;28;20335;-30
2023/07/22 03:53:42;;;;;;;;;;;16.10;71.80;;;;;;5111884;28;19908;-26
2023/07/22 03:56:08;;;;;;;;;;;16.10;71.80;;;;;;5112683;28;20283;-27
2023/07/22 03:58:33;;;;;;;;;;;16.10;71.80;;;;;;5112672;28;19908;-26
2023/07/22 04:00:59;;;;;;;;;;;16.10;71.90;;;;;;5112510;28;19911;-26
2023/07/22 04:03:24;;;;;;;;;;;16.10;71.90;;;;;;5112373;28;19938;-25
2023/07/22 04:05:53;;;;;;;;;;;16.10;72.00;;;;;;5094206;28;20045;-27
2023/07/22 04:08:19;;;;;;;;;;;16.10;72.00;;;;;;5094112;28;19911;-27
2023/07/22 04:10:50;;;;;;;;;;;16.10;72.00;;;;;;5112557;28;19915;-30
2023/07/22 04:13:16;;;;;;;;;;;16.10;72.00;;;;;;5112515;28;20366;-27
2023/07/22 04:15:41;;;;;;;;;;;16.00;72.00;;;;;;5112799;28;19912;-26
2023/07/22 04:18:07;;;;;;;;;;;16.00;72.10;;;;;;5112620;28;20366;-27
2023/07/22 04:20:32;;;;;;;;;;;16.00;72.20;;;;;;5094140;28;19976;-25
2023/07/22 04:22:58;;;;;;;;;;;16.00;72.20;;;;;;5112619;28;19912;-27
2023/07/22 04:25:24;;;;;;;;;;;16.00;72.20;;;;;;5112286;28;19908;-26
2023/07/22 04:27:49;;;;;;;;;;;16.00;72.20;;;;;;5094131;28;19912;-26
2023/07/22 04:30:20;;;;;;;;;;;16.10;72.30;;;;;;5112395;28;20348;-29
2023/07/22 04:32:49;;;;;;;;;;;16.10;72.30;;;;;;5112527;28;19915;-26
2023/07/22 04:35:17;;;;;;;;;;;16.10;72.30;;;;;;5112310;28;20316;-27
2023/07/22 04:37:43;;;;;;;;;;;16.10;72.90;;;;;;5112221;28;19916;-26
2023/07/22 04:40:13;;;;;;;;;;;16.10;72.30;;;;;;5112326;28;19908;-27
2023/07/22 04:42:38;;;;;;;;;;;16.10;72.30;;;;;;5112131;28;19912;-27
2023/07/22 04:45:04;;;;;;;;;;;16.20;72.30;;;;;;5112260;28;20045;-25
2023/07/22 04:47:30;;;;;;;;;;;16.20;72.20;;;;;;5111988;28;19915;-28
2023/07/22 04:49:55;;;;;;;;;;;16.20;72.20;;;;;;5112254;28;19908;-25
2023/07/22 04:52:21;;;;;;;;;;;16.20;72.10;;;;;;5112750;28;19908;-28
2023/07/22 04:54:47;;;;;;;;;;;16.30;72.30;;;;;;5112370;28;19919;-25
2023/07/22 04:57:12;;;;;;;;;;;16.20;72.20;;;;;;5112148;28;19955;-28
2023/07/22 04:59:38;;;;;;;;;;;16.30;72.20;;;;;;5112064;28;20276;-25
2023/07/22 05:02:04;;;;;;;;;;;16.30;72.20;;;;;;5112075;28;19915;-26
2023/07/22 05:04:29;;;;;;;;;;;16.30;72.30;;;;;;5112215;28;20285;-30
2023/07/22 05:06:54;;;;;;;;;;;16.30;72.30;;;;;;5115814;28;19924;-26
2023/07/22 05:09:20;;;;;;;;;;;16.30;72.30;;;;;;5115721;28;19908;-27
2023/07/22 05:11:46;;;;;;;;;;;16.30;72.30;;;;;;5115758;28;19907;-26
2023/07/22 05:14:11;;;;;;;;;;;16.40;72.20;;;;;;5115574;28;19907;-29
2023/07/22 05:16:37;;;;;;;;;;;16.40;72.30;;;;;;5115600;28;20408;-26
2023/07/22 05:19:04;;;;;;;;;;;16.40;72.20;;;;;;5115553;28;19908;-25
2023/07/22 05:21:30;;;;;;;;;;;16.50;72.20;;;;;;5115486;28;20481;-27
2023/07/22 05:23:55;;;;;;;;;;;16.50;72.30;;;;;;5115426;28;19994;-27
2023/07/22 05:26:21;;;;;;;;;;;16.60;72.20;;;;;;5097086;28;19957;-26
2023/07/22 05:28:46;;;;;;;;;;;16.60;72.20;;;;;;5115480;28;20286;-30
2023/07/22 05:31:12;;;;;;;;;;;16.60;72.30;;;;;;5115341;28;19994;-25
2023/07/22 05:33:37;;;;;;;;;;;16.60;72.20;;;;;;5115255;28;19908;-27
2023/07/22 05:36:03;;;;;;;;;;;16.70;72.20;;;;;;5115259;28;19956;-26
2023/07/22 05:38:28;;;;;;;;;;;16.70;72.20;;;;;;5115214;28;19962;-34
2023/07/22 05:40:54;;;;;;;;;;;16.70;72.10;;;;;;5115127;28;19912;-25
2023/07/22 05:43:20;;;;;;;;;;;16.80;72.20;;;;;;5114983;28;19912;-27
2023/07/22 05:45:45;;;;;;;;;;;16.80;72.00;;;;;;5115267;28;19972;-28
2023/07/22 05:48:11;;;;;;;;;;;16.90;71.90;;;;;;5114881;28;19976;-29
2023/07/22 05:50:36;;;;;;;;;;;17.00;71.90;;;;;;5115308;28;19907;-28
2023/07/22 05:53:02;;;;;;;;;;;17.10;71.80;;;;;;5114892;28;20264;-28
2023/07/22 05:55:27;;;;;;;;;;;17.10;71.80;;;;;;5114791;28;19957;-27
2023/07/22 05:57:52;;;;;;;;;;;17.10;71.80;;;;;;5114826;28;20372;-32
2023/07/22 06:00:18;;;;;;;;;;;17.10;72.00;;;;;;5114776;28;19908;-29
2023/07/22 06:02:44;;;;;;;;;;;17.10;72.10;;;;;;5114666;28;20394;-28
2023/07/22 06:05:09;;;;;;;;;;;17.00;72.20;;;;;;5114650;28;20271;-33
2023/07/22 06:07:36;;;;;;;;;;;17.10;72.30;;;;;;5114560;28;19908;-30
2023/07/22 06:10:02;;;;;;;;;;;17.10;72.20;;;;;;5114563;28;19914;-30
2023/07/22 06:12:27;;;;;;;;;;;17.20;72.00;;;;;;5096201;28;19986;-30
2023/07/22 06:14:53;;;;;;;;;;;17.30;72.00;;;;;;5114370;28;19908;-26
2023/07/22 06:17:20;;;;;;;;;;;17.40;71.80;;;;;;5113678;28;19947;-27
2023/07/22 06:19:45;;;;;;;;;;;17.50;71.70;;;;;;5114665;28;19908;-28
2023/07/22 06:22:11;;;;;;;;;;;17.50;71.60;;;;;;5114312;28;19953;-27
2023/07/22 06:24:36;;;;;;;;;;;17.60;71.60;;;;;;5114261;28;19957;-27
2023/07/22 06:27:02;;;;;;;;;;;17.70;71.70;;;;;;5095860;28;19930;-30
2023/07/22 06:29:27;;;;;;;;;;;17.70;71.50;;;;;;5114546;28;19907;-26
2023/07/22 06:31:53;;;;;;;;;;;17.70;71.50;;;;;;5114315;28;20378;-28
2023/07/22 06:34:18;;;;;;;;;;;17.70;71.50;;;;;;5114098;28;19934;-31
2023/07/22 06:36:44;;;;;;;;;;;17.70;71.40;;;;;;5095684;28;19952;-25
2023/07/22 06:39:09;;;;;;;;;;;17.80;71.50;;;;;;5114287;28;19915;-27
2023/07/22 06:41:34;;;;;;;;;;;17.90;72.20;;;;;;5113898;28;19907;-26
2023/07/22 06:44:00;;;;;;;;;;;17.90;71.60;;;;;;5114035;28;19912;-27
2023/07/22 06:46:26;;;;;;;;;;;18.00;71.50;;;;;;5113711;28;19908;-25
2023/07/22 06:48:51;;;;;;;;;;;18.00;71.50;;;;;;5113728;28;19964;-29
2023/07/22 06:51:17;;;;;;;;;;;18.00;71.50;;;;;;5113873;28;19914;-26
2023/07/22 06:53:42;;;;;;;;;;;18.00;71.40;;;;;;5113734;28;20283;-28
2023/07/22 06:56:07;;;;;;;;;;;18.10;71.50;;;;;;5113634;28;20347;-30
2023/07/22 06:58:33;;;;;;;;;;;18.10;71.50;;;;;;5113520;28;19908;-28
2023/07/22 07:00:59;;;;;;;;;;;18.10;71.50;;;;;;5113529;28;19920;-31
2023/07/22 07:03:24;;;;;;;;;;;18.10;71.40;;;;;;5095164;28;19923;-34
2023/07/22 07:05:54;;;;;;;;;;;18.20;71.40;;;;;;5113483;28;19908;-28
2023/07/22 07:08:19;;;;;;;;;;;18.20;71.30;;;;;;5113656;28;19911;-27
2023/07/22 07:10:45;;;;;;;;;;;18.20;71.30;;;;;;5114043;28;19915;-25
2023/07/22 07:13:10;;;;;;;;;;;18.20;71.30;;;;;;5113367;28;20135;-30
2023/07/22 07:15:36;;;;;;;;;;;18.20;71.30;;;;;;5113372;28;19914;-27
2023/07/22 07:18:01;;;;;;;;;;;18.20;71.30;;;;;;5113195;28;20359;-27
2023/07/22 07:20:27;;;;;;;;;;;18.20;71.30;;;;;;5113258;28;19922;-26
2023/07/22 07:22:52;;;;;;;;;;;18.20;71.30;;;;;;5094738;28;19961;-27
2023/07/22 07:25:18;;;;;;;;;;;18.20;71.30;;;;;;5113127;28;20298;-26
2023/07/22 07:27:43;;;;;;;;;;;18.30;71.30;;;;;;5094468;28;19908;-29
2023/07/22 07:30:09;;;;;;;;;;;18.40;71.10;;;;;;5112423;28;19919;-29
2023/07/22 07:32:35;;;;;;;;;;;18.50;70.90;;;;;;5113051;28;19907;-27
2023/07/22 07:35:01;;;;;;;;;;;18.70;70.80;;;;;;5112906;28;20279;-27
2023/07/22 07:37:26;;;;;;;;;;;18.80;70.60;;;;;;5113016;28;19907;-28
2023/07/22 07:39:52;;;;;;;;;;;18.90;70.50;;;;;;5113041;28;20321;-26
2023/07/22 07:42:18;;;;;;;;;;;19.00;70.20;;;;;;5112653;28;19911;-29
2023/07/22 07:44:43;;;;;;;;;;;19.10;70.00;;;;;;5112679;28;19991;-26
2023/07/22 07:47:09;;;;;;;;;;;19.30;69.90;;;;;;5112424;28;20272;-32
2023/07/22 07:49:34;;;;;;;;;;;19.40;69.70;;;;;;5094427;28;19998;-27
2023/07/22 07:52:00;;;;;;;;;;;19.40;69.60;;;;;;5094360;28;20002;-27
2023/07/22 07:54:25;;;;;;;;;;;19.50;69.60;;;;;;5112608;28;19915;-27
2023/07/22 07:56:51;;;;;;;;;;;19.60;69.50;;;;;;5112732;28;19908;-27
2023/07/22 07:59:16;;;;;;;;;;;19.60;69.30;;;;;;5112512;28;19908;-29
2023/07/22 08:01:41;;;;;;;;;;;19.70;69.20;;;;;;5112567;28;19995;-31
2023/07/22 08:04:08;;;;;;;;;;;19.80;69.10;;;;;;5112375;28;19923;-28
2023/07/22 08:06:34;;;;;;;;;;;19.90;68.90;;;;;;5112308;28;19907;-27
2023/07/22 08:08:59;;;;;;;;;;;19.90;68.80;;;;;;5112781;28;19912;-32
2023/07/22 08:11:25;;;;;;;;;;;19.90;68.80;;;;;;5112374;28;19957;-30
2023/07/22 08:13:51;;;;;;;;;;;19.90;68.70;;;;;;5112313;28;20006;-26
2023/07/22 08:16:17;;;;;;;;;;;19.90;68.70;;;;;;5112475;28;20295;-30
2023/07/22 08:18:43;;;;;;;;;;;19.90;68.60;;;;;;5112334;28;19908;-28
2023/07/22 08:21:09;;;;;;;;;;;20.00;68.50;;;;;;5112539;28;20271;-28
2023/07/22 08:23:34;;;;;;;;;;;20.10;68.30;;;;;;5112505;28;19918;-26
2023/07/22 08:26:00;;;;;;;;;;;20.20;68.00;;;;;;5093935;28;20386;-30
2023/07/22 08:28:26;;;;;;;;;;;20.30;67.90;;;;;;5112246;28;20282;-29
2023/07/22 08:30:55;;;;;;;;;;;20.40;67.70;;;;;;5112216;28;19908;-32
2023/07/22 08:33:20;;;;;;;;;;;20.40;67.30;;;;;;5112351;28;19908;-30
2023/07/22 08:35:47;;;;;;;;;;;20.40;67.40;;;;;;5112096;28;19908;-31
2023/07/22 08:38:13;;;;;;;;;;;20.50;67.40;;;;;;5112177;28;20367;-32
2023/07/22 08:40:40;;;;;;;;;;;20.60;67.20;;;;;;5114177;28;19914;-30
2023/07/22 08:43:06;;;;;;;;;;;20.60;67.00;;;;;;5097857;28;19919;-29
2023/07/22 08:45:34;;;;;;;;;;;20.60;67.00;;;;;;5116078;28;19912;-28
2023/07/22 08:48:03;;;;;;;;;;;20.70;66.90;;;;;;5115910;28;20032;-29
2023/07/22 08:50:30;;;;;;;;;;;20.80;66.80;;;;;;5116129;28;20293;-27
2023/07/22 08:52:56;;;;;;;;;;;20.80;66.40;;;;;;5097641;28;19908;-26
2023/07/22 08:55:22;;;;;;;;;;;20.80;66.40;;;;;;5116026;28;19915;-27
2023/07/22 08:57:49;;;;;;;;;;;20.80;66.40;;;;;;5115935;28;20379;-25
2023/07/22 09:00:16;;;;;;;;;;;20.80;66.40;;;;;;5097655;28;19977;-26
2023/07/22 09:02:41;;;;;;;;;;;20.90;66.40;;;;;;5115831;28;19927;-26
2023/07/22 09:05:09;;;;;;;;;;;20.80;66.30;;;;;;5115869;28;19911;-39
2023/07/22 09:07:35;;;;;;;;;;;20.90;66.30;;;;;;5115886;28;20044;-42
2023/07/22 09:10:02;;;;;;;;;;;20.90;66.20;;;;;;5115576;28;19911;-40
2023/07/22 09:12:27;;;;;;;;;;;21.00;66.20;;;;;;5097356;28;19912;-41
2023/07/22 09:14:53;;;;;;;;;;;21.00;66.10;;;;;;5115579;28;20382;-38
2023/07/22 09:17:19;;;;;;;;;;;21.00;66.00;;;;;;5115619;28;19947;-43
2023/07/22 09:19:44;;;;;;;;;;;21.10;65.80;;;;;;5115510;28;19908;-44
2023/07/22 09:22:10;;;;;;;;;;;21.20;65.70;;;;;;5115386;28;19999;-44
2023/07/22 09:24:35;;;;;;;;;;;21.30;65.50;;;;;;5115323;28;20011;-44
2023/07/22 09:27:01;;;;;;;;;;;21.40;65.40;;;;;;5115164;28;19957;-43
2023/07/22 09:29:34;;;;;;;;;;;21.40;65.10;;;;;;5115347;28;20320;-45
2023/07/22 09:31:59;;;;;;;;;;;21.40;65.00;;;;;;5115070;28;19912;-44
2023/07/22 09:34:25;;;;;;;;;;;21.40;65.00;;;;;;5115074;28;19956;-25
2023/07/22 09:36:52;;;;;;;;;;;21.50;65.00;;;;;;5115167;28;19908;-28
2023/07/22 09:39:18;;;;;;;;;;;21.50;64.90;;;;;;5115228;28;19908;-43
2023/07/22 09:41:43;;;;;;;;;;;21.60;64.80;;;;;;5115052;28;20260;-42
2023/07/22 09:44:10;;;;;;;;;;;21.60;64.60;;;;;;5114883;28;20329;-38
2023/07/22 09:46:35;;;;;;;;;;;21.60;64.40;;;;;;5114843;28;19908;-40
2023/07/22 09:49:05;;;;;;;;;;;21.60;63.90;;;;;;5114729;28;20045;-42
2023/07/22 09:51:35;;;;;;;;;;;21.60;63.70;;;;;;5095305;28;20002;-43
2023/07/22 09:54:01;;;;;;;;;;;21.60;63.50;;;;;;5114840;28;19908;-29
2023/07/22 09:56:27;;;;;;;;;;;21.60;63.20;;;;;;5114632;28;19908;-29
2023/07/22 09:58:53;;;;;;;;;;;21.70;63.40;;;;;;5096384;28;19999;-27
2023/07/22 10:01:24;;;;;;;;;;;21.80;63.10;;;;;;5114596;28;19924;-27
2023/07/22 10:03:56;;;;;;;;;;;21.80;62.80;;;;;;5114524;28;20313;-26
2023/07/22 10:06:28;;;;;;;;;;;21.90;62.80;;;;;;5114764;28;19973;-28
2023/07/22 10:08:58;;;;;;;;;;;22.00;62.60;;;;;;5114556;28;20019;-29
2023/07/22 10:11:26;;;;;;;;;;;22.10;62.50;;;;;;5114426;28;19915;-25
2023/07/22 10:13:52;;;;;;;;;;;22.20;62.30;;;;;;5114387;28;19925;-29
2023/07/22 10:16:18;;;;;;;;;;;22.30;62.10;;;;;;5114426;28;20352;-28
2023/07/22 10:18:45;;;;;;;;;;;22.30;61.90;;;;;;5114231;28;20371;-27
2023/07/22 10:21:11;;;;;;;;;;;22.20;61.80;;;;;;5114296;28;20275;-29
2023/07/22 10:23:38;;;;;;;;;;;22.20;61.70;;;;;;5114075;28;19916;-29
2023/07/22 10:26:04;;;;;;;;;;;22.20;61.60;;;;;;5114161;28;19960;-30
2023/07/22 10:28:30;;;;;;;;;;;22.10;61.70;;;;;;5114011;28;19908;-27
2023/07/22 10:30:56;;;;;;;;;;;22.20;61.60;;;;;;5114076;28;19908;-30
2023/07/22 10:33:22;;;;;;;;;;;22.20;61.60;;;;;;5114025;28;19915;-26
2023/07/22 10:36:14;;;;;;;;;;;22.30;61.40;;;;;;5113952;28;19908;-26
2023/07/22 10:38:39;;;;;;;;;;;22.40;61.20;;;;;;5108739;28;19949;-29
2023/07/22 10:41:12;;;;;;;;;;;22.40;61.00;;;;;;5113675;28;20279;-27
2023/07/22 10:43:37;;;;;;;;;;;22.40;61.00;;;;;;5095216;28;19911;-26
2023/07/22 10:46:08;;;;;;;;;;;22.50;60.80;;;;;;5113586;28;19918;-27
2023/07/22 10:48:38;;;;;;;;;;;22.50;60.50;;;;;;5113453;28;19919;-27
2023/07/22 10:51:09;;;;;;;;;;;22.40;60.40;;;;;;5113682;28;19908;-29
2023/07/22 10:53:54;;;;;;;;;;;22.50;60.50;;;;;;5113439;28;20428;-29
2023/07/22 10:56:26;;;;;;;;;;;22.50;60.30;;;;;;5113472;28;19908;-30
2023/07/22 10:58:52;;;;;;;;;;;22.60;59.60;;;;;;5113401;28;19908;-27
2023/07/22 11:01:27;;;;;;;;;;;22.50;59.90;;;;;;5113484;28;19908;-27
2023/07/22 11:04:12;;;;;;;;;;;22.50;59.60;;;;;;5113323;28;19916;-27
2023/07/22 11:06:39;;;;;;;;;;;22.50;59.60;;;;;;5113281;28;19907;-28
2023/07/22 11:09:05;;;;;;;;;;;22.40;59.70;;;;;;5113208;28;19908;-36
2023/07/22 11:11:40;;;;;;;;;;;22.30;59.70;;;;;;5094927;28;20362;-26
2023/07/22 11:14:16;;;;;;;;;;;22.20;59.90;;;;;;5113267;28;20011;-27
2023/07/22 11:16:41;;;;;;;;;;;22.10;60.00;;;;;;5113204;28;19951;-29
2023/07/22 11:19:07;;;;;;;;;;;21.90;60.30;;;;;;5094961;28;19931;-29
2023/07/22 11:21:32;;;;;;;;;;;21.80;60.30;;;;;;5113148;28;19914;-26
2023/07/22 11:23:58;;;;;;;;;;;21.70;60.50;;;;;;5113119;28;20371;-27
2023/07/22 11:26:23;;;;;;;;;;;21.60;60.70;;;;;;5113407;28;20282;-30
2023/07/22 11:28:49;;;;;;;;;;;21.50;60.80;;;;;;5113036;28;19922;-27
2023/07/22 11:31:14;;;;;;;;;;;21.50;61.00;;;;;;5112851;28;20002;-28
2023/07/22 11:33:40;;;;;;;;;;;21.50;61.10;;;;;;5094541;28;19914;-31
2023/07/22 11:36:06;;;;;;;;;;;21.50;61.10;;;;;;5113084;28;20316;-28
2023/07/22 11:38:32;;;;;;;;;;;21.40;60.80;;;;;;5112861;28;20295;-30
2023/07/22 11:40:58;;;;;;;;;;;21.30;61.10;;;;;;5113018;28;19907;-31
2023/07/22 11:43:23;;;;;;;;;;;21.30;61.30;;;;;;5112671;28;19911;-30
2023/07/22 11:45:49;;;;;;;;;;;21.30;61.40;;;;;;5112736;28;19914;-32
2023/07/22 11:48:14;;;;;;;;;;;21.20;61.40;;;;;;5112517;28;19940;-27
2023/07/22 11:50:40;;;;;;;;;;;21.20;61.40;;;;;;5112772;28;19919;-32
2023/07/22 11:53:08;;;;;;;;;;;21.30;61.50;;;;;;5094158;28;20217;-28
2023/07/22 11:55:35;;;;;;;;;;;21.30;61.30;;;;;;5112927;28;19943;-30
2023/07/22 11:58:01;;;;;;;;;;;21.40;61.20;;;;;;5112493;28;19912;-28
2023/07/22 12:00:26;;;;;;;;;;;21.40;61.00;;;;;;5112576;28;19912;-26
2023/07/22 12:02:57;;;;;;;;;;;21.30;61.00;;;;;;5112493;28;19916;-32
2023/07/22 12:05:22;;;;;;;;;;;21.30;61.20;;;;;;5112562;28;19911;-27
2023/07/22 12:07:48;;;;;;;;;;;21.20;61.40;;;;;;5112869;28;19926;-29
2023/07/22 12:10:15;;;;;;;;;;;21.30;61.40;;;;;;5112605;28;19912;-30
2023/07/22 12:12:45;;;;;;;;;;;21.30;61.40;;;;;;5112425;28;20052;-27
2023/07/22 12:15:18;;;;;;;;;;;21.40;61.30;;;;;;5113982;28;19942;-26
2023/07/22 12:17:54;;;;;;;;;;;21.50;61.10;;;;;;5116696;28;19912;-27
2023/07/22 12:20:23;;;;;;;;;;;21.70;60.80;;;;;;5116601;28;19911;-28
2023/07/22 12:22:48;;;;;;;;;;;22.00;60.50;;;;;;5116554;28;20137;-26
2023/07/22 12:25:14;;;;;;;;;;;22.30;60.80;;;;;;5116273;28;19912;-33
2023/07/22 12:27:40;;;;;;;;;;;22.60;59.80;;;;;;5116282;28;19912;-26
2023/07/22 12:30:06;;;;;;;;;;;22.70;59.30;;;;;;5116368;28;20046;-27
2023/07/22 12:32:33;;;;;;;;;;;22.70;58.70;;;;;;5116361;28;19919;-45
2023/07/22 12:34:58;;;;;;;;;;;22.60;58.10;;;;;;5116322;28;19919;-45
2023/07/22 12:37:25;;;;;;;;;;;22.30;58.50;;;;;;5116285;28;19911;-46
2023/07/22 12:39:51;;;;;;;;;;;22.10;58.70;;;;;;5116337;28;20376;-45
2023/07/22 12:42:16;;;;;;;;;;;21.90;58.40;;;;;;5116199;28;19962;-45
2023/07/22 12:44:42;;;;;;;;;;;21.70;59.20;;;;;;5116171;28;19911;-45
2023/07/22 12:47:07;;;;;;;;;;;21.60;59.60;;;;;;5116020;28;20006;-45
2023/07/22 12:49:33;;;;;;;;;;;21.50;59.20;;;;;;5097690;28;19911;-46
2023/07/22 12:52:03;;;;;;;;;;;21.30;59.50;;;;;;5116225;28;19922;-45
2023/07/22 12:54:30;;;;;;;;;;;21.10;60.10;;;;;;5116150;28;19915;-47
2023/07/22 12:56:56;;;;;;;;;;;20.90;60.90;;;;;;5115992;28;19918;-45
2023/07/22 12:59:22;;;;;;;;;;;20.60;62.30;;;;;;5115886;28;20379;-44
2023/07/22 13:01:47;;;;;;;;;;;20.30;62.70;;;;;;5115935;28;19919;-46
2023/07/22 13:04:12;;;;;;;;;;;20.10;63.60;;;;;;5115718;28;19915;-45
2023/07/22 13:06:38;;;;;;;;;;;19.90;63.80;;;;;;5116100;28;19937;-48
2023/07/22 13:09:04;;;;;;;;;;;19.80;64.30;;;;;;5097242;28;19912;-40
2023/07/22 13:11:29;;;;;;;;;;;19.80;64.30;;;;;;5115680;28;19923;-43
2023/07/22 13:13:55;;;;;;;;;;;19.80;64.40;;;;;;5115536;28;19918;-45
2023/07/22 13:16:20;;;;;;;;;;;19.80;64.40;;;;;;5115685;28;19912;-44
2023/07/22 13:18:46;;;;;;;;;;;20.00;64.30;;;;;;5115423;28;20014;-46
2023/07/22 13:21:11;;;;;;;;;;;20.20;64.20;;;;;;5115630;28;19912;-46
2023/07/22 13:23:37;;;;;;;;;;;20.50;64.20;;;;;;5115331;28;20414;-44
2023/07/22 13:26:02;;;;;;;;;;;20.70;63.40;;;;;;5115452;28;19958;-28
2023/07/22 13:28:28;;;;;;;;;;;21.00;63.00;;;;;;5115415;28;20375;-24
2023/07/22 13:30:53;;;;;;;;;;;21.30;62.60;;;;;;5115384;28;19912;-27
2023/07/22 13:33:19;;;;;;;;;;;21.60;62.30;;;;;;5115313;28;19951;-45
2023/07/22 13:35:44;;;;;;;;;;;21.90;61.90;;;;;;5115302;28;19955;-45
2023/07/22 13:38:10;;;;;;;;;;;22.20;61.70;;;;;;5115339;28;19912;-44
2023/07/22 13:40:35;;;;;;;;;;;22.30;61.20;;;;;;5115304;28;19934;-45
2023/07/22 13:43:01;;;;;;;;;;;22.50;60.80;;;;;;5115207;28;19977;-45
2023/07/22 13:45:26;;;;;;;;;;;22.50;60.60;;;;;;5115064;28;19912;-40
2023/07/22 13:47:52;;;;;;;;;;;22.50;60.30;;;;;;5114893;28;19920;-42
2023/07/22 13:50:18;;;;;;;;;;;22.50;60.00;;;;;;5114939;28;20333;-45
2023/07/22 13:52:43;;;;;;;;;;;22.40;60.20;;;;;;5114916;28;19951;-46
2023/07/22 13:55:09;;;;;;;;;;;22.30;60.30;;;;;;5114902;28;19916;-45
2023/07/22 13:57:35;;;;;;;;;;;22.20;60.50;;;;;;5114723;28;19912;-45
2023/07/22 14:00:00;;;;;;;;;;;22.00;60.80;;;;;;5115090;28;19912;-38
2023/07/22 14:02:26;;;;;;;;;;;21.80;61.00;;;;;;5114702;28;20011;-35
2023/07/22 14:04:51;;;;;;;;;;;21.60;61.60;;;;;;5114715;28;20391;-34
2023/07/22 14:07:17;;;;;;;;;;;21.40;61.90;;;;;;5114713;28;20371;-30
2023/07/22 14:09:43;;;;;;;;;;;21.20;62.10;;;;;;5114651;28;19951;-31